OKBK/KWI METAR and TAF weather

Enter ICAO airport designator
Station Type Date Time Source
OKBK METAR 2022/05/24 12:00 UTC NOAA

OKBK 241200Z 33014KT 3000 DU NSC 37/05 Q1006 NOSIG


Station Type Date Time Source
OKBK Decoded METAR 2022/05/24 12:00 UTC NOAA

Kuwait Internationalairport, Kuwait (OKBK) 29-13N 047-59E 55M
May 24, 2022 - 08:00 AM EDT / 2022.05.24 1200 UTC
Wind: from the NNW (330 degrees) at 16 MPH (14 KT):0
Visibility: 1 mile(s):0
Weather: widespread dust
Temperature: 98 F (37 C)
Dew Point: 41 F (5 C)
Relative Humidity: 13%
Pressure (altimeter): 29.71 in. Hg (1006 hPa)
ob: OKBK 241200Z 33014KT 3000 DU NSC 37/05 Q1006 NOSIG
cycle: 12

Station Type Date Time Source
OKBK TAF 2022/05/24 12:15 UTC NOAA

TAF TAF OKBK 241100Z 2412/2518 34010G22KT 3000 DU NSC
TEMPO 2412/2416 2000 BLDU
TEMPO 2418/2503 VRB03KT 4000 HZ
BECMG 2504/2506 35010KT 7000

Example: see airport list